Terminal Aerodrome Forecast
Issued by NWS

Home | Current Version | Previous Version | Text Only | Print | Product List | Glossary Off
Versions: 1 2 3 4 5 6 7 8 9 10 11 12 13 14 15 16 17 18

000
FTUS43 KPAH 220901 AAA
TAFCGI
TAF AMD
KCGI 220901Z 2209/2306 VRB02KT 3SM BR BCFG SKC
     FM221300 21003KT P6SM SCT250
     FM222300 VRB02KT P6SM BKN200=

USA.gov is the U.S. government's official web portal to all federal, state and local government web resources and services.